createdAt,value
2017-06-09T00:00:55.881Z,22.3
2017-06-09T00:02:06.144Z,22.35
2017-06-09T00:03:15.773Z,22.31
2017-06-09T00:04:26.036Z,22.36
2017-06-09T00:05:35.985Z,22.42
2017-06-09T00:06:46.246Z,22.35
2017-06-09T00:07:56.507Z,22.36
2017-06-09T00:09:06.773Z,22.39
2017-06-09T00:10:16.615Z,22.42
2017-06-09T00:11:26.254Z,22.31
2017-06-09T00:12:36.519Z,22.31
2017-06-09T00:13:46.155Z,22.36
2017-06-09T00:14:56.420Z,22.36
2017-06-09T00:16:06.687Z,22.36
2017-06-09T00:17:16.328Z,22.4
2017-06-09T00:18:26.280Z,22.46
2017-06-09T00:19:36.541Z,22.31
2017-06-09T00:20:46.803Z,22.45
2017-06-09T00:21:57.072Z,22.35
2017-06-09T00:23:07.336Z,22.35
2017-06-09T00:24:17.594Z,22.35
2017-06-09T00:25:27.231Z,22.36
2017-06-09T00:26:37.181Z,22.49
2017-06-09T00:27:47.598Z,22.42
2017-06-09T00:28:57.268Z,22.43
2017-06-09T00:30:07.220Z,22.31
2017-06-09T00:31:17.500Z,22.36
2017-06-09T00:32:27.447Z,22.36
2017-06-09T00:33:37.403Z,22.46
2017-06-09T00:34:47.045Z,22.42
2017-06-09T00:35:56.686Z,22.39
2017-06-09T00:37:06.328Z,22.39
2017-06-09T00:38:16.591Z,22.4
2017-06-09T00:39:26.683Z,22.37
2017-06-09T00:40:36.630Z,22.39
2017-06-09T00:41:46.266Z,22.42
2017-06-09T00:42:56.522Z,22.35
2017-06-09T00:44:06.155Z,22.39
2017-06-09T00:45:16.107Z,22.36
2017-06-09T00:46:26.058Z,22.42
2017-06-09T00:47:36.321Z,22.43
2017-06-09T00:48:46.584Z,22.4
2017-06-09T00:49:56.845Z,22.43
2017-06-09T00:51:06.793Z,22.37
2017-06-09T00:52:16.750Z,22.4
2017-06-09T00:53:27.019Z,22.33
2017-06-09T00:54:37.295Z,22.36
2017-06-09T00:55:46.937Z,22.35
2017-06-09T00:56:56.883Z,22.39
2017-06-09T00:58:06.868Z,22.36
2017-06-09T00:59:17.124Z,22.4
2017-06-09T01:00:27.075Z,22.4
2017-06-09T01:01:37.350Z,22.39
2017-06-09T01:02:47.298Z,22.42
2017-06-09T01:03:57.248Z,22.42
2017-06-09T01:05:06.883Z,22.37
2017-06-09T01:06:17.167Z,22.35
2017-06-09T01:07:26.490Z,22.4
2017-06-09T01:08:36.906Z,22.4
2017-06-09T01:09:47.173Z,22.43
2017-06-09T01:10:57.122Z,22.35
2017-06-09T01:12:07.421Z,22.42
2017-06-09T01:13:17.055Z,22.35
2017-06-09T01:14:27.009Z,22.42
2017-06-09T01:15:36.965Z,22.37
2017-06-09T01:16:46.915Z,22.33
2017-06-09T01:17:56.588Z,22.47
2017-06-09T01:19:06.228Z,22.33
2017-06-09T01:20:16.496Z,22.39
2017-06-09T01:21:26.763Z,22.36
2017-06-09T01:22:36.719Z,22.37
2017-06-09T01:23:46.666Z,22.36
2017-06-09T01:24:56.931Z,22.33
2017-06-09T01:26:07.345Z,22.33
2017-06-09T01:27:17.292Z,22.45
2017-06-09T01:28:26.922Z,22.33
2017-06-09T01:29:37.186Z,22.3
2017-06-09T01:30:47.445Z,22.3
2017-06-09T01:31:57.077Z,22.35
2017-06-09T01:33:07.341Z,22.33
2017-06-09T01:34:16.974Z,22.35
2017-06-09T01:35:27.238Z,22.47
2017-06-09T01:36:36.873Z,22.42
2017-06-09T01:37:46.868Z,22.42
2017-06-09T01:38:57.133Z,22.47
2017-06-09T01:40:07.084Z,22.37
2017-06-09T01:41:17.030Z,22.36
2017-06-09T01:42:26.668Z,22.42
2017-06-09T01:43:36.774Z,22.36
2017-06-09T01:44:46.725Z,22.33
2017-06-09T01:45:56.987Z,22.42
2017-06-09T01:47:07.255Z,22.35
2017-06-09T01:48:17.201Z,22.37
2017-06-09T01:49:27.466Z,22.4
2017-06-09T01:50:37.423Z,22.39
2017-06-09T01:51:47.053Z,22.37
2017-06-09T01:52:57.324Z,22.33
2017-06-09T01:54:07.582Z,22.35
2017-06-09T01:55:17.540Z,22.47
2017-06-09T01:56:27.178Z,22.36
2017-06-09T01:57:36.822Z,22.4
2017-06-09T01:58:47.085Z,22.37
2017-06-09T01:59:57.027Z,22.31
2017-06-09T02:01:07.440Z,22.42
2017-06-09T02:02:17.439Z,22.39
2017-06-09T02:03:27.085Z,22.33
2017-06-09T02:04:37.348Z,22.4
2017-06-09T02:05:47.613Z,22.39
2017-06-09T02:06:57.566Z,22.31
2017-06-09T02:08:07.830Z,22.47
2017-06-09T02:09:17.784Z,22.4
2017-06-09T02:10:28.087Z,22.43
2017-06-09T02:11:38.056Z,22.36
2017-06-09T02:12:48.331Z,22.42
2017-06-09T02:13:57.966Z,22.37
2017-06-09T02:15:08.240Z,22.42
2017-06-09T02:16:18.506Z,22.39
2017-06-09T02:17:28.765Z,22.39
2017-06-09T02:18:38.881Z,22.37
2017-06-09T02:19:49.145Z,22.36
2017-06-09T02:20:59.098Z,22.33
2017-06-09T02:22:09.364Z,22.31
2017-06-09T02:23:18.687Z,22.43
2017-06-09T02:24:28.639Z,22.4
2017-06-09T02:25:38.943Z,22.39
2017-06-09T02:26:48.888Z,22.42
2017-06-09T02:27:58.521Z,22.39
2017-06-09T02:29:08.790Z,22.42
2017-06-09T02:30:18.761Z,22.36
2017-06-09T02:31:28.394Z,22.33
2017-06-09T02:32:38.341Z,22.37
2017-06-09T02:33:48.610Z,22.46
2017-06-09T02:34:58.246Z,22.39
2017-06-09T02:36:08.672Z,22.4
2017-06-09T02:37:18.942Z,22.35
2017-06-09T02:38:28.890Z,22.31
2017-06-09T02:39:39.171Z,22.37
2017-06-09T02:40:49.435Z,22.35
2017-06-09T02:41:59.074Z,22.43
2017-06-09T02:43:09.341Z,22.42
2017-06-09T02:44:19.608Z,22.35
2017-06-09T02:45:29.861Z,22.37
2017-06-09T02:46:40.126Z,22.39
2017-06-09T02:47:49.764Z,22.36
2017-06-09T02:49:00.026Z,22.4
2017-06-09T02:50:10.296Z,22.39
2017-06-09T02:51:19.939Z,22.4
2017-06-09T02:52:30.207Z,22.36
2017-06-09T02:53:40.318Z,22.39
2017-06-09T02:54:50.267Z,22.37
2017-06-09T02:55:59.911Z,22.39
2017-06-09T02:57:09.870Z,22.39
2017-06-09T02:58:19.501Z,22.37
2017-06-09T02:59:29.766Z,22.35
2017-06-09T03:00:40.025Z,22.35
2017-06-09T03:01:50.291Z,22.33
2017-06-09T03:03:00.561Z,22.33
2017-06-09T03:04:10.505Z,22.35
2017-06-09T03:05:20.774Z,22.39
2017-06-09T03:06:31.037Z,22.42
2017-06-09T03:07:41.301Z,22.33
2017-06-09T03:08:50.930Z,22.35
2017-06-09T03:10:00.873Z,22.45
2017-06-09T03:11:11.289Z,22.39
2017-06-09T03:12:21.270Z,22.37
2017-06-09T03:13:30.900Z,22.45
2017-06-09T03:14:41.166Z,22.35
2017-06-09T03:15:51.433Z,22.33
2017-06-09T03:17:01.370Z,22.4
2017-06-09T03:18:11.633Z,22.42
2017-06-09T03:19:21.894Z,22.39
2017-06-09T03:20:31.838Z,22.31
2017-06-09T03:21:41.813Z,22.46
2017-06-09T03:22:51.769Z,22.4
2017-06-09T03:24:02.030Z,22.35
2017-06-09T03:25:12.293Z,22.33
2017-06-09T03:26:22.240Z,22.35
2017-06-09T03:27:32.499Z,22.39
2017-06-09T03:28:42.289Z,22.36
2017-06-09T03:29:52.240Z,22.37
2017-06-09T03:31:02.514Z,22.42
2017-06-09T03:32:12.777Z,22.46
2017-06-09T03:33:22.721Z,22.39
2017-06-09T03:34:32.990Z,22.35
2017-06-09T03:35:42.625Z,22.43
2017-06-09T03:36:52.255Z,22.33
2017-06-09T03:38:02.213Z,22.31
2017-06-09T03:39:12.471Z,22.39
2017-06-09T03:40:22.433Z,22.4
2017-06-09T03:41:32.387Z,22.42
2017-06-09T03:42:42.687Z,22.39
2017-06-09T03:43:52.951Z,22.36
2017-06-09T03:45:03.214Z,22.35
2017-06-09T03:46:13.309Z,22.39
2017-06-09T03:47:23.256Z,22.42
2017-06-09T03:48:33.220Z,22.43
2017-06-09T03:49:43.520Z,22.37
2017-06-09T03:50:53.783Z,22.43
2017-06-09T03:52:03.736Z,22.42
2017-06-09T03:53:13.690Z,22.4
2017-06-09T03:54:23.633Z,22.37
2017-06-09T03:55:33.893Z,22.37
2017-06-09T03:56:43.846Z,22.39
2017-06-09T03:57:53.173Z,22.4
2017-06-09T03:59:03.430Z,22.31
2017-06-09T04:00:13.381Z,22.39
2017-06-09T04:01:23.653Z,22.36
2017-06-09T04:02:33.602Z,22.42
2017-06-09T04:03:43.701Z,22.4
2017-06-09T04:04:53.654Z,22.43
2017-06-09T04:06:03.296Z,22.36
2017-06-09T04:07:13.248Z,22.4
2017-06-09T04:08:23.201Z,22.37
2017-06-09T04:09:33.463Z,22.43
2017-06-09T04:10:43.728Z,22.35
2017-06-09T04:11:52.734Z,22.35
2017-06-09T04:13:02.367Z,22.36
2017-06-09T04:14:12.645Z,22.4
2017-06-09T04:15:21.970Z,22.31
2017-06-09T04:16:32.239Z,22.35
2017-06-09T04:17:42.190Z,22.36
2017-06-09T04:18:51.818Z,22.36
2017-06-09T04:20:01.770Z,22.39
2017-06-09T04:21:12.180Z,22.39
2017-06-09T04:22:22.137Z,22.36
2017-06-09T04:23:31.769Z,22.35
2017-06-09T04:24:41.402Z,22.33
2017-06-09T04:25:51.038Z,22.39
2017-06-09T04:27:01.302Z,22.36
2017-06-09T04:28:11.560Z,22.42
2017-06-09T04:29:21.832Z,22.37
2017-06-09T04:30:32.090Z,22.36
2017-06-09T04:31:42.044Z,22.33
2017-06-09T04:32:51.987Z,22.36
2017-06-09T04:34:01.944Z,22.39
2017-06-09T04:35:12.207Z,22.4
2017-06-09T04:36:22.479Z,22.35
2017-06-09T04:37:32.740Z,22.39
2017-06-09T04:38:42.688Z,22.42
2017-06-09T04:39:52.960Z,22.43
2017-06-09T04:41:02.914Z,22.36
2017-06-09T04:42:12.865Z,22.33
2017-06-09T04:43:22.812Z,22.35
2017-06-09T04:44:32.761Z,22.37
2017-06-09T04:45:43.028Z,22.35
2017-06-09T04:46:53.295Z,22.35
2017-06-09T04:48:03.560Z,22.33
2017-06-09T04:49:13.508Z,22.35
2017-06-09T04:50:23.772Z,22.35
2017-06-09T04:51:33.722Z,22.39
2017-06-09T04:52:43.675Z,22.42
2017-06-09T04:53:53.307Z,22.33
2017-06-09T04:55:03.091Z,22.4
2017-06-09T04:56:12.413Z,22.45
2017-06-09T04:57:22.052Z,22.36
2017-06-09T04:58:32.313Z,22.51
2017-06-09T04:59:42.254Z,22.45
2017-06-09T05:00:52.195Z,22.39
2017-06-09T05:02:02.142Z,22.4
2017-06-09T05:03:11.815Z,22.47
2017-06-09T05:04:22.084Z,22.51
2017-06-09T05:05:32.034Z,22.46
2017-06-09T05:06:42.140Z,22.46
2017-06-09T05:07:52.104Z,22.51
2017-06-09T05:09:02.072Z,22.51
2017-06-09T05:10:12.015Z,22.46
2017-06-09T05:11:21.965Z,22.46
2017-06-09T05:12:32.276Z,22.39
2017-06-09T05:13:42.228Z,22.55
2017-06-09T05:14:52.489Z,22.52
2017-06-09T05:16:02.437Z,22.51
2017-06-09T05:17:12.392Z,22.47
2017-06-09T05:18:22.346Z,22.52
2017-06-09T05:19:32.605Z,22.47
2017-06-09T05:20:42.554Z,22.47
2017-06-09T05:21:52.820Z,22.51
2017-06-09T05:23:03.086Z,22.54
2017-06-09T05:24:12.867Z,22.55
2017-06-09T05:25:22.812Z,22.46
2017-06-09T05:26:32.755Z,22.49
2017-06-09T05:27:43.023Z,22.46
2017-06-09T05:28:52.974Z,22.47
2017-06-09T05:30:03.239Z,22.54
2017-06-09T05:31:13.505Z,22.43
2017-06-09T05:32:23.448Z,22.47
2017-06-09T05:33:33.405Z,22.51
2017-06-09T05:34:43.046Z,22.51
2017-06-09T05:35:53.360Z,22.51
2017-06-09T05:37:03.322Z,22.55
2017-06-09T05:38:13.271Z,22.54
2017-06-09T05:39:23.224Z,22.49
2017-06-09T05:40:32.862Z,22.55
2017-06-09T05:41:43.276Z,22.64
2017-06-09T05:42:52.626Z,22.6
2017-06-09T05:44:02.570Z,22.61
2017-06-09T05:45:12.836Z,22.58
2017-06-09T05:46:22.816Z,22.61
2017-06-09T05:47:33.087Z,22.64
2017-06-09T05:48:43.362Z,22.62
2017-06-09T05:49:53.314Z,22.7
2017-06-09T05:51:03.584Z,22.67
2017-06-09T05:52:13.230Z,22.64
2017-06-09T05:53:23.523Z,22.6
2017-06-09T05:54:33.166Z,22.64
2017-06-09T05:55:43.115Z,22.7
2017-06-09T05:56:53.373Z,22.64
2017-06-09T05:58:03.365Z,22.67
2017-06-09T05:59:13.781Z,22.62
2017-06-09T06:00:23.736Z,22.64
2017-06-09T06:01:33.691Z,22.57
2017-06-09T06:02:43.949Z,22.58
2017-06-09T06:03:54.216Z,22.6
2017-06-09T06:05:04.166Z,22.58
2017-06-09T06:06:14.117Z,22.68
2017-06-09T06:07:23.744Z,22.58
2017-06-09T06:08:33.379Z,22.7
2017-06-09T06:09:43.334Z,22.64
2017-06-09T06:10:53.600Z,22.65
2017-06-09T06:12:03.554Z,22.61
2017-06-09T06:13:13.193Z,22.72
2017-06-09T06:14:23.144Z,22.68
2017-06-09T06:15:33.094Z,22.67
2017-06-09T06:16:43.041Z,22.72
2017-06-09T06:17:52.991Z,22.75
2017-06-09T06:19:02.938Z,22.72
2017-06-09T06:20:12.576Z,22.76
2017-06-09T06:21:22.840Z,22.75
2017-06-09T06:22:32.622Z,22.65
2017-06-09T06:23:41.948Z,22.65
2017-06-09T06:24:51.904Z,22.55
2017-06-09T06:26:02.166Z,22.6
2017-06-09T06:27:12.430Z,22.58
2017-06-09T06:28:22.692Z,22.65
2017-06-09T06:29:32.327Z,22.62
2017-06-09T06:30:42.584Z,22.64
2017-06-09T06:31:52.535Z,22.64
2017-06-09T06:33:02.495Z,22.64
2017-06-09T06:34:12.447Z,22.79
2017-06-09T06:35:22.707Z,22.7
2017-06-09T06:36:32.657Z,22.76
2017-06-09T06:37:42.305Z,22.73
2017-06-09T06:38:52.707Z,22.76
2017-06-09T06:40:02.347Z,22.72
2017-06-09T06:41:11.989Z,22.72
2017-06-09T06:42:21.950Z,22.77
2017-06-09T06:43:32.213Z,22.68
2017-06-09T06:44:42.498Z,22.65
2017-06-09T06:45:52.135Z,22.62
2017-06-09T06:47:02.086Z,22.61
2017-06-09T06:48:12.353Z,22.7
2017-06-09T06:49:22.302Z,22.64
2017-06-09T06:50:32.402Z,22.7
2017-06-09T06:51:42.368Z,22.73
2017-06-09T06:52:52.320Z,22.61
2017-06-09T06:54:02.591Z,22.65
2017-06-09T06:55:12.536Z,22.68
2017-06-09T06:56:22.485Z,22.55
2017-06-09T06:57:32.749Z,22.64
2017-06-09T06:58:42.396Z,22.67
2017-06-09T06:59:52.348Z,22.76
2017-06-09T07:01:02.293Z,22.8
2017-06-09T07:02:12.553Z,22.86
2017-06-09T07:03:22.189Z,22.77
2017-06-09T07:04:32.458Z,22.86
2017-06-09T07:05:42.733Z,22.86
2017-06-09T07:06:53.006Z,22.95
2017-06-09T07:08:03.111Z,22.97
2017-06-09T07:09:13.061Z,23
2017-06-09T07:10:23.322Z,23.07
2017-06-09T07:11:33.277Z,23.09
2017-06-09T07:12:42.912Z,22.98
2017-06-09T07:13:52.861Z,22.95
2017-06-09T07:15:03.122Z,22.95
2017-06-09T07:16:13.071Z,22.94
2017-06-09T07:17:23.330Z,22.92
2017-06-09T07:18:33.275Z,22.97
2017-06-09T07:19:43.378Z,22.98
2017-06-09T07:20:53.326Z,22.98
2017-06-09T07:22:11.997Z,22.97
2017-06-09T07:23:21.948Z,23.02
2017-06-09T07:24:32.247Z,22.92
2017-06-09T07:25:41.883Z,22.88
2017-06-09T07:26:51.839Z,22.86
2017-06-09T07:28:01.800Z,22.95
2017-06-09T07:29:11.790Z,22.97
2017-06-09T07:30:21.116Z,22.92
2017-06-09T07:31:31.221Z,22.97
2017-06-09T07:32:41.490Z,22.92
2017-06-09T07:33:51.431Z,22.97
2017-06-09T07:35:01.697Z,22.94
2017-06-09T07:36:11.984Z,23
2017-06-09T07:37:22.289Z,22.94
2017-06-09T07:38:32.564Z,22.98
2017-06-09T07:39:42.827Z,23.04
2017-06-09T07:40:53.101Z,23
2017-06-09T07:42:03.052Z,22.98
2017-06-09T07:43:13.466Z,23
2017-06-09T07:44:23.729Z,23.04
2017-06-09T07:45:33.363Z,23
2017-06-09T07:46:43.634Z,23.04
2017-06-09T07:47:53.902Z,23
2017-06-09T07:49:03.910Z,23.01
2017-06-09T07:50:13.707Z,22.98
2017-06-09T07:51:24.313Z,23.02
2017-06-09T07:52:34.259Z,23
2017-06-09T07:53:43.893Z,22.97
2017-06-09T07:54:53.848Z,23.04
2017-06-09T07:56:03.794Z,23.04
2017-06-09T07:57:13.753Z,23.01
2017-06-09T07:58:23.702Z,23.02
2017-06-09T07:59:33.655Z,23.01
2017-06-09T08:00:43.924Z,23
2017-06-09T08:01:53.876Z,23
2017-06-09T08:03:03.506Z,22.94
2017-06-09T08:04:13.467Z,23.04
2017-06-09T08:05:23.425Z,23.07
2017-06-09T08:06:33.381Z,23.1
2017-06-09T08:07:43.646Z,23.04
2017-06-09T08:08:53.598Z,23.13
2017-06-09T08:10:03.233Z,23.1
2017-06-09T08:11:13.194Z,23.09
2017-06-09T08:12:23.290Z,23.1
2017-06-09T08:13:32.301Z,23.04
2017-06-09T08:14:41.940Z,23.04
2017-06-09T08:15:51.896Z,23.01
2017-06-09T08:17:02.155Z,23.07
2017-06-09T08:18:11.787Z,23.15
2017-06-09T08:19:21.744Z,23.1
2017-06-09T08:20:32.012Z,23.02
2017-06-09T08:21:42.017Z,23.09
2017-06-09T08:22:52.364Z,23.07
2017-06-09T08:24:02.318Z,23.1
2017-06-09T08:25:11.957Z,23.05
2017-06-09T08:26:22.231Z,23.07
2017-06-09T08:27:32.184Z,23.02
2017-06-09T08:28:41.823Z,23.07
2017-06-09T08:29:52.236Z,23.07
2017-06-09T08:31:02.182Z,23.02
2017-06-09T08:32:12.132Z,23.09
2017-06-09T08:33:21.452Z,23.1
2017-06-09T08:34:30.775Z,23.05
2017-06-09T08:35:41.075Z,23.13
2017-06-09T08:36:50.716Z,23.12
2017-06-09T08:38:00.678Z,23.09
2017-06-09T08:39:10.638Z,23.01
2017-06-09T08:40:20.274Z,23.01
2017-06-09T08:41:30.372Z,23.01
2017-06-09T08:42:40.631Z,23
2017-06-09T08:43:50.585Z,23.02
2017-06-09T08:45:00.218Z,23.07
2017-06-09T08:46:09.544Z,23.07
2017-06-09T08:47:19.177Z,23.12
2017-06-09T08:48:29.126Z,23.02
2017-06-09T08:49:38.756Z,23
2017-06-09T08:50:49.038Z,23.12
2017-06-09T08:51:59.311Z,23.07
2017-06-09T08:53:08.783Z,22.98
2017-06-09T08:54:18.104Z,23.02
2017-06-09T08:55:27.740Z,23.04
2017-06-09T08:56:38.004Z,23.05
2017-06-09T08:57:47.988Z,23.1
2017-06-09T08:58:57.988Z,22.97
2017-06-09T09:00:07.980Z,23.04
2017-06-09T09:01:18.245Z,23.05
2017-06-09T09:02:28.503Z,23
2017-06-09T09:03:38.766Z,23.02
2017-06-09T09:04:48.721Z,23.15
2017-06-09T09:05:58.994Z,23.02
2017-06-09T09:07:09.259Z,23.04
2017-06-09T09:08:19.212Z,23.02
2017-06-09T09:09:28.841Z,23
2017-06-09T09:10:38.625Z,22.98
2017-06-09T09:11:48.885Z,22.97
2017-06-09T09:12:58.832Z,23.01
2017-06-09T09:14:09.098Z,23.07
2017-06-09T09:15:19.050Z,23.02
2017-06-09T09:16:29.002Z,23.07
2017-06-09T09:17:39.262Z,23.04
2017-06-09T09:18:49.524Z,22.98
2017-06-09T09:19:59.471Z,23.04
2017-06-09T09:21:09.425Z,22.98
2017-06-09T09:22:19.215Z,23.04
2017-06-09T09:23:29.164Z,22.97
2017-06-09T09:24:39.431Z,23.12
2017-06-09T09:25:49.695Z,23.02
2017-06-09T09:26:59.643Z,23.02
2017-06-09T09:28:09.904Z,22.97
2017-06-09T09:29:19.857Z,23.04
2017-06-09T09:30:29.806Z,22.94
2017-06-09T09:31:40.074Z,23.01
2017-06-09T09:32:50.341Z,23
2017-06-09T09:34:00.606Z,22.95
2017-06-09T09:35:10.562Z,23
2017-06-09T09:36:20.828Z,22.97
2017-06-09T09:37:30.777Z,23.04
2017-06-09T09:38:40.727Z,22.98
2017-06-09T09:39:50.361Z,22.95
2017-06-09T09:41:00.667Z,23.01
2017-06-09T09:42:10.937Z,23.01
2017-06-09T09:43:21.213Z,23.02
2017-06-09T09:44:30.849Z,23
2017-06-09T09:45:41.268Z,23
2017-06-09T09:46:50.587Z,22.95
2017-06-09T09:48:00.859Z,23.04
2017-06-09T09:49:09.871Z,23.05
2017-06-09T09:50:19.508Z,23
2017-06-09T09:51:29.464Z,23.01
2017-06-09T09:52:39.726Z,22.97
2017-06-09T09:53:49.992Z,22.94
2017-06-09T09:54:59.946Z,23.01
2017-06-09T09:56:10.214Z,23.02
2017-06-09T09:57:20.622Z,22.97
2017-06-09T09:58:30.888Z,23.02
2017-06-09T09:59:41.151Z,23.01
2017-06-09T10:00:51.095Z,23
2017-06-09T10:02:01.044Z,23.09
2017-06-09T10:03:11.319Z,23.04
2017-06-09T10:04:21.578Z,23
2017-06-09T10:05:31.527Z,22.91
2017-06-09T10:06:41.473Z,23.01
2017-06-09T10:07:51.420Z,22.97
2017-06-09T10:09:01.690Z,23.04
2017-06-09T10:10:11.326Z,23.02
2017-06-09T10:11:20.964Z,23
2017-06-09T10:12:31.229Z,22.98
2017-06-09T10:13:40.867Z,23.04
2017-06-09T10:14:50.811Z,23.05
2017-06-09T10:16:00.464Z,23.04
2017-06-09T10:17:10.111Z,22.97
2017-06-09T10:18:20.376Z,22.98
2017-06-09T10:19:30.647Z,23.04
2017-06-09T10:20:40.753Z,22.95
2017-06-09T10:21:50.393Z,22.94
2017-06-09T10:23:00.341Z,22.98
2017-06-09T10:24:10.292Z,23
2017-06-09T10:25:20.245Z,23.01
2017-06-09T10:26:30.193Z,23.05
2017-06-09T10:27:40.142Z,22.98
2017-06-09T10:28:49.777Z,23.01
2017-06-09T10:29:59.730Z,23.09
2017-06-09T10:31:09.680Z,23.01
2017-06-09T10:32:19.937Z,22.95
2017-06-09T10:33:29.884Z,23.01
2017-06-09T10:34:39.517Z,23.04
2017-06-09T10:35:49.780Z,22.94
2017-06-09T10:36:59.416Z,22.98
2017-06-09T10:38:09.545Z,23
2017-06-09T10:39:19.804Z,23.04
2017-06-09T10:40:30.071Z,22.98
2017-06-09T10:41:40.017Z,23
2017-06-09T10:42:50.275Z,23.01
2017-06-09T10:43:59.920Z,23
2017-06-09T10:45:10.189Z,22.95
2017-06-09T10:46:20.134Z,23
2017-06-09T10:47:30.393Z,23.02
2017-06-09T10:48:40.656Z,23.01
2017-06-09T10:49:50.442Z,23.04
2017-06-09T10:51:00.709Z,23.02
2017-06-09T10:52:10.337Z,23.01
2017-06-09T10:53:20.281Z,23.04
2017-06-09T10:54:29.916Z,23.12
2017-06-09T10:55:40.184Z,23.15
2017-06-09T10:56:50.139Z,23.05
2017-06-09T10:58:00.096Z,23.02
2017-06-09T10:59:09.746Z,23.04
2017-06-09T11:00:20.012Z,23.05
2017-06-09T11:01:30.115Z,23.1
2017-06-09T11:02:39.743Z,23.02
2017-06-09T11:03:50.002Z,23.01
2017-06-09T11:05:00.267Z,22.95
2017-06-09T11:06:10.216Z,23.13
2017-06-09T11:07:20.477Z,23.07
2017-06-09T11:08:30.741Z,23
2017-06-09T11:09:40.692Z,23.04
2017-06-09T11:10:50.639Z,22.95
2017-06-09T11:12:00.590Z,22.98
2017-06-09T11:13:10.856Z,23.01
2017-06-09T11:14:20.495Z,23.04
2017-06-09T11:15:30.452Z,23.1
2017-06-09T11:16:39.772Z,22.97
2017-06-09T11:17:49.729Z,23.02
2017-06-09T11:18:59.822Z,23.01
2017-06-09T11:20:09.769Z,23.05
2017-06-09T11:21:19.408Z,23.05
2017-06-09T11:22:29.045Z,23
2017-06-09T11:23:39.311Z,23.01
2017-06-09T11:24:48.951Z,22.94
2017-06-09T11:25:58.912Z,23
2017-06-09T11:27:09.179Z,23.15
2017-06-09T11:28:19.129Z,22.98
2017-06-09T11:29:28.767Z,22.97
2017-06-09T11:30:38.712Z,23.04
2017-06-09T11:31:48.964Z,23.05
2017-06-09T11:32:59.229Z,23.04
2017-06-09T11:34:09.177Z,23.07
2017-06-09T11:35:19.433Z,23.04
2017-06-09T11:36:29.525Z,23.05
2017-06-09T11:37:39.476Z,22.98
2017-06-09T11:38:49.424Z,23.07
2017-06-09T11:39:59.098Z,23.07
2017-06-09T11:41:09.361Z,22.95
2017-06-09T11:42:19.624Z,23
2017-06-09T11:43:29.570Z,23.07
2017-06-09T11:44:39.212Z,23.16
2017-06-09T11:45:49.475Z,23.15
2017-06-09T11:46:59.734Z,23.01
2017-06-09T11:48:09.829Z,23.09
2017-06-09T11:49:20.094Z,23.09
2017-06-09T11:50:30.050Z,23.09
2017-06-09T11:51:40.001Z,23.05
2017-06-09T11:52:49.947Z,23.09
2017-06-09T11:54:00.214Z,23.1
2017-06-09T11:55:10.160Z,23.15
2017-06-09T11:56:19.795Z,23.04
2017-06-09T11:57:29.419Z,23.1
2017-06-09T11:58:39.676Z,23.1
2017-06-09T11:59:49.941Z,23.05
2017-06-09T12:00:59.578Z,23.1
2017-06-09T12:02:09.529Z,23.1
2017-06-09T12:03:19.790Z,23.07
2017-06-09T12:04:30.193Z,23.12
2017-06-09T12:05:40.143Z,23.19
2017-06-09T12:06:50.413Z,23.05
2017-06-09T12:08:00.056Z,23.01
2017-06-09T12:09:09.696Z,23.1
2017-06-09T12:10:19.959Z,23.12
2017-06-09T12:11:30.214Z,23.16
2017-06-09T12:12:40.161Z,23.13
2017-06-09T12:13:50.104Z,23.07
2017-06-09T12:15:00.052Z,23.15
2017-06-09T12:16:10.003Z,23.01
2017-06-09T12:17:20.306Z,23.13
2017-06-09T12:18:29.939Z,23.15
2017-06-09T12:19:39.600Z,23.16
2017-06-09T12:20:49.547Z,23.13
2017-06-09T12:21:59.958Z,23.1
2017-06-09T12:23:09.907Z,23.16
2017-06-09T12:24:20.163Z,23.12
2017-06-09T12:25:29.479Z,23.05
2017-06-09T12:26:39.432Z,23.13
2017-06-09T12:27:50.075Z,23.17
2017-06-09T12:29:00.020Z,23.09
2017-06-09T12:30:09.664Z,23.09
2017-06-09T12:31:19.614Z,23.12
2017-06-09T12:32:29.585Z,23.1
2017-06-09T12:33:39.218Z,23.09
2017-06-09T12:34:49.480Z,23.07
2017-06-09T12:35:59.432Z,23.15
2017-06-09T12:37:09.683Z,23.12
2017-06-09T12:38:19.322Z,23.02
2017-06-09T12:39:29.587Z,23.09
2017-06-09T12:40:39.851Z,23.13
2017-06-09T12:41:50.110Z,23.04
2017-06-09T12:43:00.372Z,23.13
2017-06-09T12:44:10.003Z,23.12
2017-06-09T12:45:20.415Z,23.07
2017-06-09T12:46:30.362Z,23.13
2017-06-09T12:47:40.305Z,23.05
2017-06-09T12:48:49.940Z,23.05
2017-06-09T12:49:59.891Z,23.12
2017-06-09T12:51:09.215Z,23.09
2017-06-09T12:52:18.534Z,23.13
2017-06-09T12:53:28.803Z,23.12
2017-06-09T12:54:38.749Z,23.12
2017-06-09T12:55:49.014Z,23.09
2017-06-09T12:56:59.110Z,23.15
2017-06-09T12:58:09.373Z,23.09
2017-06-09T12:59:18.685Z,23.15
2017-06-09T13:00:28.010Z,23.13
2017-06-09T13:01:37.965Z,23.1
2017-06-09T13:02:48.228Z,23.1
2017-06-09T13:03:58.175Z,23.12
2017-06-09T13:05:07.817Z,23.09
2017-06-09T13:06:17.763Z,23.1
2017-06-09T13:07:27.396Z,23.15
2017-06-09T13:08:37.342Z,23.12
2017-06-09T13:09:46.971Z,23.1
2017-06-09T13:10:56.602Z,23.16
2017-06-09T13:12:06.862Z,23.15
2017-06-09T13:13:16.507Z,23.12
2017-06-09T13:14:26.459Z,23.12
2017-06-09T13:15:36.412Z,23.12
2017-06-09T13:16:46.364Z,23.12
2017-06-09T13:17:55.685Z,23.07
2017-06-09T13:19:05.953Z,23.12
2017-06-09T13:20:15.905Z,23.12
2017-06-09T13:21:25.853Z,23.12
2017-06-09T13:22:35.490Z,23.2
2017-06-09T13:23:45.797Z,23.19
2017-06-09T13:24:55.895Z,23.13
2017-06-09T13:26:05.842Z,23.17
2017-06-09T13:27:15.785Z,23.09
2017-06-09T13:28:26.040Z,23.13
2017-06-09T13:29:35.992Z,23.1
2017-06-09T13:30:46.258Z,23.13
2017-06-09T13:31:56.208Z,23.12
2017-06-09T13:33:06.482Z,23.25
2017-06-09T13:34:16.739Z,23.16
2017-06-09T13:35:27.004Z,23.07
2017-06-09T13:36:36.952Z,23.09
2017-06-09T13:37:46.894Z,23.12
2017-06-09T13:38:56.525Z,23.19
2017-06-09T13:40:06.169Z,23.16
2017-06-09T13:41:16.112Z,23.13
2017-06-09T13:42:26.522Z,23.17
2017-06-09T13:43:36.787Z,23.17
2017-06-09T13:44:46.424Z,23.16
2017-06-09T13:45:56.058Z,23.16
2017-06-09T13:47:06.006Z,23.1
2017-06-09T13:48:16.271Z,23.19
2017-06-09T13:49:26.227Z,23.15
2017-06-09T13:50:36.493Z,23.23
2017-06-09T13:51:46.763Z,23.13
2017-06-09T13:52:56.715Z,23.23
2017-06-09T13:54:06.862Z,23.27
2017-06-09T13:55:17.157Z,23.09
2017-06-09T13:56:27.107Z,23.12
2017-06-09T13:57:37.363Z,23.15
2017-06-09T13:58:47.632Z,23.12
2017-06-09T13:59:57.582Z,23.22
2017-06-09T14:01:07.540Z,23.2
2017-06-09T14:02:17.171Z,23.16
2017-06-09T14:03:27.433Z,23.23
2017-06-09T14:04:37.382Z,23.13
2017-06-09T14:05:47.797Z,23.15
2017-06-09T14:06:58.063Z,23.15
2017-06-09T14:08:08.329Z,23.12
2017-06-09T14:09:17.647Z,23.17
2017-06-09T14:10:27.914Z,23.12
2017-06-09T14:11:38.180Z,23.09
2017-06-09T14:12:47.828Z,23.16
2017-06-09T14:13:57.773Z,23.19
2017-06-09T14:15:07.409Z,23.16
2017-06-09T14:16:17.042Z,23.13
2017-06-09T14:17:27.139Z,23.1
2017-06-09T14:18:37.413Z,23.1
2017-06-09T14:19:47.670Z,23.1
2017-06-09T14:20:57.611Z,23.2
2017-06-09T14:22:07.555Z,23.12
2017-06-09T14:23:17.854Z,23.15
2017-06-09T14:24:28.115Z,23.09
2017-06-09T14:25:38.057Z,23.22
2017-06-09T14:26:48.020Z,23.07
2017-06-09T14:27:58.296Z,23.13
2017-06-09T14:29:08.558Z,23.12
2017-06-09T14:30:18.825Z,23.2
2017-06-09T14:31:28.783Z,23.17
2017-06-09T14:32:38.103Z,23.17
2017-06-09T14:33:48.518Z,23.17
2017-06-09T14:34:58.784Z,23.17
2017-06-09T14:36:08.734Z,23.27
2017-06-09T14:37:18.712Z,23.25
2017-06-09T14:38:28.670Z,23.2
2017-06-09T14:39:38.613Z,23.15
2017-06-09T14:40:48.883Z,23.28
2017-06-09T14:41:58.831Z,23.17
2017-06-09T14:43:08.804Z,23.17
2017-06-09T14:44:19.077Z,23.25
2017-06-09T14:45:28.545Z,23.15
2017-06-09T14:46:38.181Z,23.31
2017-06-09T14:47:48.474Z,23.15
2017-06-09T14:48:58.129Z,23.23
2017-06-09T14:50:08.393Z,23.19
2017-06-09T14:51:18.339Z,23.16
2017-06-09T14:52:27.663Z,23.17
2017-06-09T14:53:37.930Z,23.25
2017-06-09T14:54:47.888Z,23.27
2017-06-09T14:55:57.871Z,23.23
2017-06-09T14:57:07.820Z,23.25
2017-06-09T14:58:17.778Z,23.19
2017-06-09T14:59:27.728Z,23.13
2017-06-09T15:00:37.685Z,23.23
2017-06-09T15:01:47.646Z,23.2
2017-06-09T15:02:57.126Z,23.2
2017-06-09T15:04:07.080Z,23.23
2017-06-09T15:05:17.360Z,23.23
2017-06-09T15:06:27.311Z,23.15
2017-06-09T15:07:37.572Z,23.16